Scott, Arkansas
Current Conditions -  °F | °C
As of 10:53 PM on Saturday 22 Nov 2014 (Local Time) from KLIT Reporting Station
Overcast Overcast  
Wind Chill: 59°   Ceiling: 25000
Heat Index: 59°   Visibility: 10mi
Dew Point: 50°   Wind: 7mph
Humidity: 72%   Direction: 140°SE
Pressure: 29.89"   Gusts: NA
Location:  34.7°N, 92.1°W
Report Text: KLIT 230453Z 14006KT 10SM FEW048 OVC250 15/10 A2989 RMK AO2 SLP122 T01500100
Loading
Personal Weather Stations






























Interactive Weather Map New forecast layout! Learn more

10-Day Weather Forecast

Advertisements
Track Severe Weather on mobile